createdAt,value
2018-09-20T00:03:48.902Z,100175.84
2018-09-20T00:09:08.568Z,100163.63
2018-09-20T00:14:27.326Z,100165.94
2018-09-20T00:19:45.893Z,100164.92
2018-09-20T00:25:04.481Z,100152.13
2018-09-20T00:30:22.993Z,100156.41
2018-09-20T00:35:41.574Z,100148.97
2018-09-20T00:41:00.142Z,100135.13
2018-09-20T00:46:18.728Z,100145.66
2018-09-20T00:51:38.155Z,100137.62
2018-09-20T00:56:56.730Z,100134.63
2018-09-20T01:02:15.890Z,100134.12
2018-09-20T01:07:34.471Z,100138.29
2018-09-20T01:12:53.711Z,100142.86
2018-09-20T01:18:12.229Z,100143.54
2018-09-20T01:23:31.499Z,100140.11
2018-09-20T01:28:50.102Z,100136.31
2018-09-20T01:34:08.632Z,100135.82
2018-09-20T01:39:27.296Z,100145.19
2018-09-20T01:44:45.912Z,100148.73
2018-09-20T01:50:06.739Z,100150.52
2018-09-20T01:55:25.366Z,100148.59
2018-09-20T02:00:44.741Z,100152.95
2018-09-20T02:06:03.343Z,100151.03
2018-09-20T02:11:22.631Z,100147.53
2018-09-20T02:16:41.202Z,100147.86
2018-09-20T02:22:00.240Z,100149.91
2018-09-20T02:27:19.687Z,100144.02
2018-09-20T02:32:38.971Z,100147.72
2018-09-20T02:37:57.510Z,100157.37
2018-09-20T02:43:16.295Z,100152.25
2018-09-20T02:48:35.484Z,100153.63
2018-09-20T02:53:54.042Z,100147.38
2018-09-20T02:59:12.635Z,100141.27
2018-09-20T03:04:31.387Z,100143.45
2018-09-20T03:09:49.957Z,100143.36
2018-09-20T03:15:08.527Z,100145.81
2018-09-20T03:20:27.222Z,100138.98
2018-09-20T03:25:45.741Z,100140.02
2018-09-20T03:31:04.462Z,100139.52
2018-09-20T03:36:23.512Z,100149.64
2018-09-20T03:41:42.469Z,100139.81
2018-09-20T03:47:01.105Z,100140.67
2018-09-20T03:52:20.514Z,100142.17
2018-09-20T03:57:39.049Z,100142.71
2018-09-20T04:02:57.728Z,100140.81
2018-09-20T04:08:16.336Z,100138.42
2018-09-20T04:13:35.717Z,100134.30
2018-09-20T04:18:54.865Z,100128.64
2018-09-20T04:24:13.507Z,100134.14
2018-09-20T04:29:32.803Z,100130.39
2018-09-20T04:34:51.375Z,100134.45
2018-09-20T04:40:09.938Z,100136.16
2018-09-20T04:45:28.537Z,100135.00
2018-09-20T04:50:47.210Z,100145.05
2018-09-20T04:56:06.165Z,100143.68
2018-09-20T05:01:24.726Z,100152.87
2018-09-20T05:06:43.289Z,100138.17
2018-09-20T05:12:03.404Z,100139.48
2018-09-20T05:17:21.951Z,100139.69
2018-09-20T05:22:40.520Z,100138.58
2018-09-20T05:27:59.168Z,100138.47
2018-09-20T05:33:17.751Z,100140.47
2018-09-20T05:38:36.391Z,100132.91
2018-09-20T05:43:55.020Z,100131.19
2018-09-20T05:49:14.227Z,100127.64
2018-09-20T05:54:33.286Z,100139.63
2018-09-20T05:59:51.840Z,100141.59
2018-09-20T06:05:10.356Z,100135.13
2018-09-20T06:10:28.963Z,100142.88
2018-09-20T06:15:47.575Z,100135.08
2018-09-20T06:21:06.102Z,100134.12
2018-09-20T06:26:24.917Z,100142.35
2018-09-20T06:31:43.470Z,100142.35
2018-09-20T06:37:02.201Z,100148.87
2018-09-20T06:42:21.513Z,100165.05
2018-09-20T06:47:40.064Z,100153.31
2018-09-20T06:52:59.160Z,100142.05
2018-09-20T06:58:17.735Z,100135.60
2018-09-20T07:03:36.275Z,100129.36
2018-09-20T07:08:55.411Z,100135.64
2018-09-20T07:14:14.240Z,100127.44
2018-09-20T07:19:32.870Z,100129.23
2018-09-20T07:24:51.574Z,100130.33
2018-09-20T07:30:10.629Z,100140.17
2018-09-20T07:35:29.183Z,100138.55
2018-09-20T07:40:47.686Z,100142.07
2018-09-20T07:46:06.935Z,100142.75
2018-09-20T07:51:25.451Z,100147.23
2018-09-20T07:56:44.038Z,100146.25
2018-09-20T08:02:02.737Z,100134.48
2018-09-20T08:07:21.431Z,100150.55
2018-09-20T08:12:40.103Z,100147.44
2018-09-20T08:17:58.633Z,100148.02
2018-09-20T08:23:17.526Z,100153.19
2018-09-20T08:28:36.935Z,100155.89
2018-09-20T08:33:56.164Z,100150.48
2018-09-20T08:40:06.022Z,100147.05
2018-09-20T08:45:24.552Z,100155.52
2018-09-20T08:50:43.354Z,100154.54
2018-09-20T08:56:01.877Z,100156.72
2018-09-20T09:01:21.170Z,100154.59
2018-09-20T09:06:39.834Z,100163.82
2018-09-20T09:11:59.025Z,100162.42
2018-09-20T09:17:17.544Z,100149.65
2018-09-20T09:22:36.068Z,100140.25
2018-09-20T09:27:55.287Z,100132.00
2018-09-20T09:33:13.965Z,100123.06
2018-09-20T09:38:33.184Z,100119.95
2018-09-20T09:43:53.351Z,100109.91
2018-09-20T09:49:11.999Z,100111.80
2018-09-20T09:54:30.717Z,100109.98
2018-09-20T09:59:49.293Z,100104.31
2018-09-20T10:05:07.791Z,100105.29
2018-09-20T10:10:26.334Z,100109.62
2018-09-20T10:15:45.490Z,100091.58
2018-09-20T10:21:04.209Z,100084.50
2018-09-20T10:26:23.372Z,100084.94
2018-09-20T10:31:41.929Z,100089.28
2018-09-20T10:37:00.566Z,100087.63
2018-09-20T10:42:19.824Z,100073.91
2018-09-20T10:47:38.521Z,100060.63
2018-09-20T10:52:57.472Z,100057.89
2018-09-20T10:58:17.005Z,100058.02
2018-09-20T11:03:35.691Z,100054.09
2018-09-20T11:08:54.369Z,100053.79
2018-09-20T11:14:13.127Z,100044.27
2018-09-20T11:19:31.970Z,100043.05
2018-09-20T11:24:50.736Z,100021.13
2018-09-20T11:30:09.375Z,100023.08
2018-09-20T11:35:28.139Z,100027.85
2018-09-20T11:40:47.555Z,100030.66
2018-09-20T11:46:07.150Z,100041.15
2018-09-20T11:51:25.934Z,100027.88
2018-09-20T11:56:44.979Z,100023.05
2018-09-20T12:02:05.308Z,100027.62
2018-09-20T12:07:24.803Z,100021.78
2018-09-20T12:12:43.604Z,100023.55
2018-09-20T12:18:02.187Z,100021.41
2018-09-20T12:23:20.774Z,100001.97
2018-09-20T12:28:40.035Z,99990.53
2018-09-20T12:33:58.871Z,99987.70
2018-09-20T12:39:17.622Z,99984.88
2018-09-20T12:44:36.235Z,99983.43
2018-09-20T12:49:54.854Z,99965.20
2018-09-20T12:55:14.056Z,99943.05
2018-09-20T13:00:32.898Z,99949.45
2018-09-20T13:05:51.505Z,99940.51
2018-09-20T13:11:10.888Z,99925.89
2018-09-20T13:16:30.082Z,99927.06
2018-09-20T13:21:49.479Z,99921.73
2018-09-20T13:27:08.174Z,99927.03
2018-09-20T13:32:27.361Z,99936.77
2018-09-20T13:37:45.919Z,99916.56
2018-09-20T13:43:05.116Z,99908.81
2018-09-20T13:48:23.730Z,99913.97
2018-09-20T13:53:42.396Z,99905.43
2018-09-20T13:59:01.291Z,99898.89
2018-09-20T14:04:19.907Z,99884.05
2018-09-20T14:09:38.538Z,99873.58
2018-09-20T14:14:57.273Z,99875.75
2018-09-20T14:20:15.894Z,99871.31
2018-09-20T14:25:35.850Z,99863.41
2018-09-20T14:30:54.486Z,99856.77
2018-09-20T14:36:13.244Z,99848.45
2018-09-20T14:41:31.928Z,99837.05
2018-09-20T14:46:50.728Z,99823.11
2018-09-20T14:52:08.455Z,99817.50
2018-09-20T14:57:26.100Z,99806.38
2018-09-20T15:02:43.640Z,99802.61
2018-09-20T15:08:01.198Z,99795.34
2018-09-20T15:13:18.684Z,99779.16
2018-09-20T15:18:36.179Z,99771.89
2018-09-20T15:23:53.804Z,99773.41
2018-09-20T15:29:11.251Z,99765.41
2018-09-20T15:34:29.431Z,99758.49
2018-09-20T15:39:48.214Z,99754.63
2018-09-20T15:45:06.580Z,99743.19
2018-09-20T15:50:24.029Z,99731.85
2018-09-20T15:55:41.574Z,99734.59
2018-09-20T16:00:59.075Z,99721.60
2018-09-20T16:06:16.601Z,99725.08
2018-09-20T16:11:34.115Z,99732.33
2018-09-20T16:16:51.890Z,99729.94
2018-09-20T16:22:09.330Z,99710.75
2018-09-20T16:27:27.163Z,99702.05
2018-09-20T16:33:09.400Z,99684.45
2018-09-20T16:38:36.330Z,99673.16
2018-09-20T16:43:53.878Z,99671.09
2018-09-20T16:49:11.535Z,99661.52
2018-09-20T16:54:29.157Z,99655.28
2018-09-20T16:59:46.656Z,99656.56
2018-09-20T17:05:04.317Z,99654.10
2018-09-20T17:10:21.890Z,99653.80
2018-09-20T17:15:39.389Z,99645.56
2018-09-20T17:20:57.034Z,99647.36
2018-09-20T17:26:14.610Z,99638.28
2018-09-20T17:31:33.134Z,99635.19
2018-09-20T17:36:52.531Z,99632.70
2018-09-20T17:42:10.823Z,99625.00
2018-09-20T17:47:28.398Z,99635.20
2018-09-20T17:52:46.964Z,99628.50
2018-09-20T17:58:06.111Z,99624.38
2018-09-20T18:03:23.698Z,99612.87
2018-09-20T18:08:41.161Z,99615.94
2018-09-20T18:13:58.654Z,99611.67
2018-09-20T18:19:16.284Z,99605.22
2018-09-20T18:24:34.780Z,99603.02
2018-09-20T18:29:52.209Z,99602.48
2018-09-20T18:35:10.776Z,99591.81
2018-09-20T18:40:28.256Z,99593.44
2018-09-20T18:45:46.438Z,99597.15
2018-09-20T18:51:03.902Z,99592.27
2018-09-20T18:56:21.455Z,99589.56
2018-09-20T19:01:38.908Z,99590.41
2018-09-20T19:06:56.369Z,99587.73
2018-09-20T19:12:14.688Z,99591.51
2018-09-20T19:17:32.131Z,99588.30
2018-09-20T19:22:49.619Z,99577.73
2018-09-20T19:28:07.050Z,99571.06
2018-09-20T19:33:24.591Z,99568.89
2018-09-20T19:38:42.122Z,99566.23
2018-09-20T19:43:59.681Z,99556.69
2018-09-20T19:49:17.165Z,99558.02
2018-09-20T19:54:34.599Z,99556.39
2018-09-20T19:59:52.048Z,99549.66
2018-09-20T20:05:09.459Z,99550.50
2018-09-20T20:10:27.395Z,99543.55
2018-09-20T20:15:45.630Z,99543.36
2018-09-20T20:21:04.102Z,99533.31
2018-09-20T20:26:21.523Z,99522.26
2018-09-20T20:31:38.944Z,99506.09
2018-09-20T20:36:56.388Z,99510.41
2018-09-20T20:42:13.834Z,99497.40
2018-09-20T20:47:32.055Z,99492.56
2018-09-20T20:52:50.167Z,99489.75
2018-09-20T20:58:07.632Z,99492.00
2018-09-20T21:03:25.021Z,99488.97
2018-09-20T21:08:42.491Z,99481.77
2018-09-20T21:13:59.902Z,99482.45
2018-09-20T21:19:17.304Z,99466.86
2018-09-20T21:24:34.749Z,99457.41
2018-09-20T21:29:52.211Z,99458.03
2018-09-20T21:35:09.680Z,99451.34
2018-09-20T21:40:27.117Z,99441.84
2018-09-20T21:45:45.235Z,99436.34
2018-09-20T21:51:02.905Z,99429.53
2018-09-20T21:56:20.390Z,99416.02
2018-09-20T22:01:44.182Z,99407.19
2018-09-20T22:07:01.622Z,99395.61
2018-09-20T22:12:19.056Z,99395.45
2018-09-20T22:17:36.458Z,99393.03
2018-09-20T22:22:53.850Z,99381.88
2018-09-20T22:28:11.888Z,99370.28
2018-09-20T22:33:29.317Z,99355.83
2018-09-20T22:38:47.707Z,99344.36
2018-09-20T22:44:05.145Z,99351.72
2018-09-20T22:49:23.206Z,99349.83
2018-09-20T22:54:40.652Z,99327.70
2018-09-20T22:59:58.720Z,99317.05
2018-09-20T23:05:16.169Z,99316.08
2018-09-20T23:10:33.643Z,99320.63
2018-09-20T23:15:51.051Z,99307.30
2018-09-20T23:21:08.547Z,99305.71
2018-09-20T23:26:26.677Z,99298.63
2018-09-20T23:31:44.275Z,99293.92
2018-09-20T23:37:02.145Z,99280.69
2018-09-20T23:42:19.856Z,99279.00
2018-09-20T23:47:37.314Z,99276.08
2018-09-20T23:52:54.799Z,99276.08
2018-09-20T23:58:13.080Z,99268.48
